sensor_id;sensor_type;location;lat;lon;timestamp;P1;durP1;ratioP1;P2;durP2;ratioP2
84946;SDS011;75241;51.692;5.196;2024-01-07T00:01:46;22.90;;;13.93;;
84946;SDS011;75241;51.692;5.196;2024-01-07T00:04:14;23.25;;;14.20;;
84946;SDS011;75241;51.692;5.196;2024-01-07T00:06:40;24.67;;;14.20;;
84946;SDS011;75241;51.692;5.196;2024-01-07T00:09:05;22.90;;;12.93;;
84946;SDS011;75241;51.692;5.196;2024-01-07T00:11:31;27.35;;;14.93;;
84946;SDS011;75241;51.692;5.196;2024-01-07T00:13:56;24.52;;;13.20;;
84946;SDS011;75241;51.692;5.196;2024-01-07T00:16:22;24.15;;;13.20;;
84946;SDS011;75241;51.692;5.196;2024-01-07T00:18:47;23.35;;;13.43;;
84946;SDS011;75241;51.692;5.196;2024-01-07T00:21:12;24.98;;;14.80;;
84946;SDS011;75241;51.692;5.196;2024-01-07T00:23:38;23.27;;;13.75;;
84946;SDS011;75241;51.692;5.196;2024-01-07T00:26:03;23.50;;;15.02;;
84946;SDS011;75241;51.692;5.196;2024-01-07T00:28:29;24.48;;;14.77;;
84946;SDS011;75241;51.692;5.196;2024-01-07T00:30:54;27.92;;;15.23;;
84946;SDS011;75241;51.692;5.196;2024-01-07T00:33:20;27.65;;;15.43;;
84946;SDS011;75241;51.692;5.196;2024-01-07T00:35:45;25.73;;;14.23;;
84946;SDS011;75241;51.692;5.196;2024-01-07T00:38:10;23.92;;;13.55;;
84946;SDS011;75241;51.692;5.196;2024-01-07T00:40:36;25.02;;;13.75;;
84946;SDS011;75241;51.692;5.196;2024-01-07T00:43:03;25.80;;;14.50;;
84946;SDS011;75241;51.692;5.196;2024-01-07T00:45:28;24.52;;;14.10;;
84946;SDS011;75241;51.692;5.196;2024-01-07T00:47:54;24.50;;;15.20;;
84946;SDS011;75241;51.692;5.196;2024-01-07T00:50:20;25.42;;;14.52;;
84946;SDS011;75241;51.692;5.196;2024-01-07T00:52:45;24.77;;;14.75;;
84946;SDS011;75241;51.692;5.196;2024-01-07T00:55:11;23.25;;;14.18;;
84946;SDS011;75241;51.692;5.196;2024-01-07T00:57:36;28.63;;;15.93;;
84946;SDS011;75241;51.692;5.196;2024-01-07T01:00:05;28.65;;;16.13;;
84946;SDS011;75241;51.692;5.196;2024-01-07T01:02:31;29.20;;;15.50;;
84946;SDS011;75241;51.692;5.196;2024-01-07T01:04:57;28.55;;;15.95;;
84946;SDS011;75241;51.692;5.196;2024-01-07T01:07:22;24.70;;;14.60;;
84946;SDS011;75241;51.692;5.196;2024-01-07T01:09:48;27.75;;;14.63;;
84946;SDS011;75241;51.692;5.196;2024-01-07T01:12:13;25.35;;;15.52;;
84946;SDS011;75241;51.692;5.196;2024-01-07T01:14:39;22.42;;;14.05;;
84946;SDS011;75241;51.692;5.196;2024-01-07T01:17:04;23.95;;;13.82;;
84946;SDS011;75241;51.692;5.196;2024-01-07T01:19:29;22.83;;;13.52;;
84946;SDS011;75241;51.692;5.196;2024-01-07T01:21:55;24.55;;;14.20;;
84946;SDS011;75241;51.692;5.196;2024-01-07T01:24:20;23.98;;;13.63;;
84946;SDS011;75241;51.692;5.196;2024-01-07T01:26:46;26.70;;;14.90;;
84946;SDS011;75241;51.692;5.196;2024-01-07T01:29:11;26.17;;;15.35;;
84946;SDS011;75241;51.692;5.196;2024-01-07T01:31:37;27.13;;;14.48;;
84946;SDS011;75241;51.692;5.196;2024-01-07T01:34:02;26.92;;;14.98;;
84946;SDS011;75241;51.692;5.196;2024-01-07T01:36:27;27.83;;;14.55;;
84946;SDS011;75241;51.692;5.196;2024-01-07T01:38:53;27.45;;;14.10;;
84946;SDS011;75241;51.692;5.196;2024-01-07T01:41:18;26.20;;;14.18;;
84946;SDS011;75241;51.692;5.196;2024-01-07T01:43:44;27.60;;;15.52;;
84946;SDS011;75241;51.692;5.196;2024-01-07T01:46:09;25.05;;;14.18;;
84946;SDS011;75241;51.692;5.196;2024-01-07T01:48:38;32.10;;;15.55;;
84946;SDS011;75241;51.692;5.196;2024-01-07T01:51:03;29.15;;;14.38;;
84946;SDS011;75241;51.692;5.196;2024-01-07T01:53:29;28.00;;;14.57;;
84946;SDS011;75241;51.692;5.196;2024-01-07T01:55:56;29.85;;;14.05;;
84946;SDS011;75241;51.692;5.196;2024-01-07T01:58:22;28.52;;;14.52;;
84946;SDS011;75241;51.692;5.196;2024-01-07T02:00:48;30.08;;;16.17;;
84946;SDS011;75241;51.692;5.196;2024-01-07T02:05:41;31.25;;;15.98;;
84946;SDS011;75241;51.692;5.196;2024-01-07T02:08:07;29.90;;;15.50;;
84946;SDS011;75241;51.692;5.196;2024-01-07T02:10:32;28.08;;;13.48;;
84946;SDS011;75241;51.692;5.196;2024-01-07T02:13:01;28.65;;;15.75;;
84946;SDS011;75241;51.692;5.196;2024-01-07T02:15:27;27.70;;;14.00;;
84946;SDS011;75241;51.692;5.196;2024-01-07T02:17:52;29.70;;;15.13;;
84946;SDS011;75241;51.692;5.196;2024-01-07T02:20:18;28.00;;;13.73;;
84946;SDS011;75241;51.692;5.196;2024-01-07T02:22:43;26.40;;;14.60;;
84946;SDS011;75241;51.692;5.196;2024-01-07T02:25:09;20.92;;;12.30;;
84946;SDS011;75241;51.692;5.196;2024-01-07T02:27:34;27.63;;;13.65;;
84946;SDS011;75241;51.692;5.196;2024-01-07T02:30:00;30.63;;;15.07;;
84946;SDS011;75241;51.692;5.196;2024-01-07T02:32:25;24.13;;;13.48;;
84946;SDS011;75241;51.692;5.196;2024-01-07T02:34:51;28.65;;;13.88;;
84946;SDS011;75241;51.692;5.196;2024-01-07T02:37:17;26.58;;;13.10;;
84946;SDS011;75241;51.692;5.196;2024-01-07T02:39:42;30.92;;;15.55;;
84946;SDS011;75241;51.692;5.196;2024-01-07T02:42:09;30.63;;;15.45;;
84946;SDS011;75241;51.692;5.196;2024-01-07T02:44:35;28.88;;;15.48;;
84946;SDS011;75241;51.692;5.196;2024-01-07T02:47:00;36.85;;;16.63;;
84946;SDS011;75241;51.692;5.196;2024-01-07T02:49:26;38.83;;;20.10;;
84946;SDS011;75241;51.692;5.196;2024-01-07T02:51:51;39.15;;;18.17;;
84946;SDS011;75241;51.692;5.196;2024-01-07T02:54:16;34.90;;;17.77;;
84946;SDS011;75241;51.692;5.196;2024-01-07T02:56:42;37.13;;;18.30;;
84946;SDS011;75241;51.692;5.196;2024-01-07T02:59:07;39.97;;;19.90;;
84946;SDS011;75241;51.692;5.196;2024-01-07T03:01:33;40.67;;;18.95;;
84946;SDS011;75241;51.692;5.196;2024-01-07T03:04:05;36.40;;;18.52;;
84946;SDS011;75241;51.692;5.196;2024-01-07T03:06:30;42.00;;;19.73;;
84946;SDS011;75241;51.692;5.196;2024-01-07T03:08:57;40.70;;;19.85;;
84946;SDS011;75241;51.692;5.196;2024-01-07T03:11:22;39.50;;;20.83;;
84946;SDS011;75241;51.692;5.196;2024-01-07T03:13:48;38.10;;;18.90;;
84946;SDS011;75241;51.692;5.196;2024-01-07T03:16:20;43.88;;;20.08;;
84946;SDS011;75241;51.692;5.196;2024-01-07T03:18:46;37.13;;;19.20;;
84946;SDS011;75241;51.692;5.196;2024-01-07T03:21:22;39.72;;;19.58;;
84946;SDS011;75241;51.692;5.196;2024-01-07T03:23:48;40.38;;;19.15;;
84946;SDS011;75241;51.692;5.196;2024-01-07T03:26:15;43.63;;;20.70;;
84946;SDS011;75241;51.692;5.196;2024-01-07T03:28:41;40.72;;;19.73;;
84946;SDS011;75241;51.692;5.196;2024-01-07T03:31:08;41.08;;;20.50;;
84946;SDS011;75241;51.692;5.196;2024-01-07T03:33:35;41.20;;;19.42;;
84946;SDS011;75241;51.692;5.196;2024-01-07T03:36:00;39.65;;;19.98;;
84946;SDS011;75241;51.692;5.196;2024-01-07T03:38:26;39.17;;;19.42;;
84946;SDS011;75241;51.692;5.196;2024-01-07T03:40:51;38.85;;;19.45;;
84946;SDS011;75241;51.692;5.196;2024-01-07T03:43:17;38.88;;;20.02;;
84946;SDS011;75241;51.692;5.196;2024-01-07T03:45:42;39.97;;;20.63;;
84946;SDS011;75241;51.692;5.196;2024-01-07T03:48:08;35.97;;;19.38;;
84946;SDS011;75241;51.692;5.196;2024-01-07T03:50:34;37.28;;;19.77;;
84946;SDS011;75241;51.692;5.196;2024-01-07T03:52:59;38.42;;;20.00;;
84946;SDS011;75241;51.692;5.196;2024-01-07T03:55:24;34.67;;;17.73;;
84946;SDS011;75241;51.692;5.196;2024-01-07T03:57:50;37.15;;;19.00;;
84946;SDS011;75241;51.692;5.196;2024-01-07T04:00:15;41.70;;;19.75;;
84946;SDS011;75241;51.692;5.196;2024-01-07T04:02:41;33.72;;;17.42;;
84946;SDS011;75241;51.692;5.196;2024-01-07T04:05:07;33.95;;;19.02;;
84946;SDS011;75241;51.692;5.196;2024-01-07T04:07:33;36.40;;;18.75;;
84946;SDS011;75241;51.692;5.196;2024-01-07T04:09:59;38.33;;;20.60;;
84946;SDS011;75241;51.692;5.196;2024-01-07T04:12:24;35.78;;;18.52;;
84946;SDS011;75241;51.692;5.196;2024-01-07T04:14:50;39.75;;;18.25;;
84946;SDS011;75241;51.692;5.196;2024-01-07T04:17:15;39.28;;;18.13;;
84946;SDS011;75241;51.692;5.196;2024-01-07T04:19:40;34.75;;;17.95;;
84946;SDS011;75241;51.692;5.196;2024-01-07T04:22:06;39.78;;;20.60;;
84946;SDS011;75241;51.692;5.196;2024-01-07T04:24:31;35.42;;;19.75;;
84946;SDS011;75241;51.692;5.196;2024-01-07T04:26:57;35.08;;;18.52;;
84946;SDS011;75241;51.692;5.196;2024-01-07T04:29:22;37.53;;;20.35;;
84946;SDS011;75241;51.692;5.196;2024-01-07T04:31:47;37.97;;;18.52;;
84946;SDS011;75241;51.692;5.196;2024-01-07T04:34:13;36.70;;;17.75;;
84946;SDS011;75241;51.692;5.196;2024-01-07T04:36:38;36.25;;;18.33;;
84946;SDS011;75241;51.692;5.196;2024-01-07T04:39:04;30.55;;;17.52;;
84946;SDS011;75241;51.692;5.196;2024-01-07T04:41:29;33.63;;;18.10;;
84946;SDS011;75241;51.692;5.196;2024-01-07T04:43:54;36.45;;;18.15;;
84946;SDS011;75241;51.692;5.196;2024-01-07T04:46:20;37.22;;;18.13;;
84946;SDS011;75241;51.692;5.196;2024-01-07T04:48:45;36.40;;;19.42;;
84946;SDS011;75241;51.692;5.196;2024-01-07T04:51:11;37.40;;;18.55;;
84946;SDS011;75241;51.692;5.196;2024-01-07T04:53:36;33.40;;;17.20;;
84946;SDS011;75241;51.692;5.196;2024-01-07T04:56:02;42.17;;;19.90;;
84946;SDS011;75241;51.692;5.196;2024-01-07T04:58:27;41.97;;;20.77;;
84946;SDS011;75241;51.692;5.196;2024-01-07T05:00:53;42.22;;;20.83;;
84946;SDS011;75241;51.692;5.196;2024-01-07T05:03:18;39.20;;;19.45;;
84946;SDS011;75241;51.692;5.196;2024-01-07T05:05:44;39.67;;;19.90;;
84946;SDS011;75241;51.692;5.196;2024-01-07T05:08:09;39.45;;;20.20;;
84946;SDS011;75241;51.692;5.196;2024-01-07T05:10:34;41.80;;;19.63;;
84946;SDS011;75241;51.692;5.196;2024-01-07T05:13:00;38.20;;;20.23;;
84946;SDS011;75241;51.692;5.196;2024-01-07T05:15:30;37.05;;;16.42;;
84946;SDS011;75241;51.692;5.196;2024-01-07T05:17:56;35.45;;;18.15;;
84946;SDS011;75241;51.692;5.196;2024-01-07T05:20:21;37.33;;;17.73;;
84946;SDS011;75241;51.692;5.196;2024-01-07T05:22:47;32.60;;;16.45;;
84946;SDS011;75241;51.692;5.196;2024-01-07T05:25:12;33.47;;;17.05;;
84946;SDS011;75241;51.692;5.196;2024-01-07T05:27:38;32.63;;;16.95;;
84946;SDS011;75241;51.692;5.196;2024-01-07T05:30:03;35.13;;;16.45;;
84946;SDS011;75241;51.692;5.196;2024-01-07T05:32:29;23.42;;;14.35;;
84946;SDS011;75241;51.692;5.196;2024-01-07T05:34:54;28.92;;;14.68;;
84946;SDS011;75241;51.692;5.196;2024-01-07T05:37:20;23.98;;;13.93;;
84946;SDS011;75241;51.692;5.196;2024-01-07T05:39:45;24.73;;;12.98;;
84946;SDS011;75241;51.692;5.196;2024-01-07T05:42:12;23.98;;;13.77;;
84946;SDS011;75241;51.692;5.196;2024-01-07T05:44:37;23.63;;;14.88;;
84946;SDS011;75241;51.692;5.196;2024-01-07T05:47:03;26.35;;;15.40;;
84946;SDS011;75241;51.692;5.196;2024-01-07T05:49:29;30.98;;;17.33;;
84946;SDS011;75241;51.692;5.196;2024-01-07T05:51:54;35.15;;;18.45;;
84946;SDS011;75241;51.692;5.196;2024-01-07T05:54:20;34.88;;;18.27;;
84946;SDS011;75241;51.692;5.196;2024-01-07T05:56:45;35.10;;;17.83;;
84946;SDS011;75241;51.692;5.196;2024-01-07T05:59:10;34.13;;;17.55;;
84946;SDS011;75241;51.692;5.196;2024-01-07T06:01:36;32.08;;;15.73;;
84946;SDS011;75241;51.692;5.196;2024-01-07T06:04:01;30.48;;;16.50;;
84946;SDS011;75241;51.692;5.196;2024-01-07T06:06:27;28.42;;;15.55;;
84946;SDS011;75241;51.692;5.196;2024-01-07T06:08:52;30.00;;;16.25;;
84946;SDS011;75241;51.692;5.196;2024-01-07T06:11:18;31.05;;;18.08;;
84946;SDS011;75241;51.692;5.196;2024-01-07T06:13:43;32.80;;;18.35;;
84946;SDS011;75241;51.692;5.196;2024-01-07T06:16:09;36.17;;;18.17;;
84946;SDS011;75241;51.692;5.196;2024-01-07T06:18:35;32.42;;;18.60;;
84946;SDS011;75241;51.692;5.196;2024-01-07T06:21:00;36.05;;;20.40;;
84946;SDS011;75241;51.692;5.196;2024-01-07T06:23:26;34.88;;;17.67;;
84946;SDS011;75241;51.692;5.196;2024-01-07T06:25:51;38.22;;;20.13;;
84946;SDS011;75241;51.692;5.196;2024-01-07T06:28:17;29.55;;;16.73;;
84946;SDS011;75241;51.692;5.196;2024-01-07T06:30:42;31.48;;;18.92;;
84946;SDS011;75241;51.692;5.196;2024-01-07T06:33:07;30.77;;;17.42;;
84946;SDS011;75241;51.692;5.196;2024-01-07T06:35:33;32.70;;;17.67;;
84946;SDS011;75241;51.692;5.196;2024-01-07T06:37:58;33.08;;;17.73;;
84946;SDS011;75241;51.692;5.196;2024-01-07T06:40:24;29.45;;;16.95;;
84946;SDS011;75241;51.692;5.196;2024-01-07T06:42:50;27.83;;;16.50;;
84946;SDS011;75241;51.692;5.196;2024-01-07T06:45:16;27.77;;;16.20;;
84946;SDS011;75241;51.692;5.196;2024-01-07T06:47:42;27.95;;;16.63;;
84946;SDS011;75241;51.692;5.196;2024-01-07T06:50:07;27.63;;;16.63;;
84946;SDS011;75241;51.692;5.196;2024-01-07T06:52:33;28.48;;;17.08;;
84946;SDS011;75241;51.692;5.196;2024-01-07T06:54:59;26.27;;;15.23;;
84946;SDS011;75241;51.692;5.196;2024-01-07T06:57:24;27.27;;;15.60;;
84946;SDS011;75241;51.692;5.196;2024-01-07T06:59:50;27.00;;;14.55;;
84946;SDS011;75241;51.692;5.196;2024-01-07T07:02:15;24.63;;;15.60;;
84946;SDS011;75241;51.692;5.196;2024-01-07T07:04:40;23.80;;;14.45;;
84946;SDS011;75241;51.692;5.196;2024-01-07T07:07:06;25.40;;;15.23;;
84946;SDS011;75241;51.692;5.196;2024-01-07T07:09:31;25.88;;;14.55;;
84946;SDS011;75241;51.692;5.196;2024-01-07T07:11:58;22.90;;;13.23;;
84946;SDS011;75241;51.692;5.196;2024-01-07T07:14:23;20.38;;;13.27;;
84946;SDS011;75241;51.692;5.196;2024-01-07T07:16:49;22.27;;;12.77;;
84946;SDS011;75241;51.692;5.196;2024-01-07T07:19:14;22.45;;;14.32;;
84946;SDS011;75241;51.692;5.196;2024-01-07T07:21:41;22.52;;;13.65;;
84946;SDS011;75241;51.692;5.196;2024-01-07T07:24:07;24.95;;;13.50;;
84946;SDS011;75241;51.692;5.196;2024-01-07T07:26:33;24.02;;;13.88;;
84946;SDS011;75241;51.692;5.196;2024-01-07T07:29:01;21.48;;;13.00;;
84946;SDS011;75241;51.692;5.196;2024-01-07T07:31:27;18.83;;;12.35;;
84946;SDS011;75241;51.692;5.196;2024-01-07T07:33:52;22.20;;;13.32;;
84946;SDS011;75241;51.692;5.196;2024-01-07T07:36:17;23.95;;;13.50;;
84946;SDS011;75241;51.692;5.196;2024-01-07T07:38:43;22.95;;;13.98;;
84946;SDS011;75241;51.692;5.196;2024-01-07T07:41:08;22.95;;;14.82;;
84946;SDS011;75241;51.692;5.196;2024-01-07T07:43:34;20.15;;;13.80;;
84946;SDS011;75241;51.692;5.196;2024-01-07T07:45:59;22.95;;;13.18;;
84946;SDS011;75241;51.692;5.196;2024-01-07T07:50:53;20.70;;;12.95;;
84946;SDS011;75241;51.692;5.196;2024-01-07T07:53:18;18.52;;;12.02;;
84946;SDS011;75241;51.692;5.196;2024-01-07T07:55:43;19.52;;;12.20;;
84946;SDS011;75241;51.692;5.196;2024-01-07T07:58:09;19.00;;;11.32;;
84946;SDS011;75241;51.692;5.196;2024-01-07T08:00:34;20.35;;;12.10;;
84946;SDS011;75241;51.692;5.196;2024-01-07T08:03:00;20.58;;;12.60;;
84946;SDS011;75241;51.692;5.196;2024-01-07T08:05:25;21.33;;;12.68;;
84946;SDS011;75241;51.692;5.196;2024-01-07T08:07:51;18.38;;;11.75;;
84946;SDS011;75241;51.692;5.196;2024-01-07T08:10:16;19.65;;;11.63;;
84946;SDS011;75241;51.692;5.196;2024-01-07T08:12:42;21.63;;;13.30;;
84946;SDS011;75241;51.692;5.196;2024-01-07T08:15:07;21.52;;;12.68;;
84946;SDS011;75241;51.692;5.196;2024-01-07T08:17:33;22.15;;;12.73;;
84946;SDS011;75241;51.692;5.196;2024-01-07T08:19:58;22.48;;;14.23;;
84946;SDS011;75241;51.692;5.196;2024-01-07T08:22:24;25.58;;;15.00;;
84946;SDS011;75241;51.692;5.196;2024-01-07T08:24:50;22.23;;;13.40;;
84946;SDS011;75241;51.692;5.196;2024-01-07T08:27:16;21.48;;;14.20;;
84946;SDS011;75241;51.692;5.196;2024-01-07T08:29:44;22.98;;;13.02;;
84946;SDS011;75241;51.692;5.196;2024-01-07T08:32:10;22.08;;;13.88;;
84946;SDS011;75241;51.692;5.196;2024-01-07T08:34:37;20.80;;;14.73;;
84946;SDS011;75241;51.692;5.196;2024-01-07T08:37:03;23.00;;;13.63;;
84946;SDS011;75241;51.692;5.196;2024-01-07T08:39:28;25.35;;;15.60;;
84946;SDS011;75241;51.692;5.196;2024-01-07T08:41:55;24.00;;;13.93;;
84946;SDS011;75241;51.692;5.196;2024-01-07T08:44:20;22.17;;;13.13;;
84946;SDS011;75241;51.692;5.196;2024-01-07T08:46:45;24.35;;;13.88;;
84946;SDS011;75241;51.692;5.196;2024-01-07T08:49:11;24.85;;;14.68;;
84946;SDS011;75241;51.692;5.196;2024-01-07T08:51:36;20.77;;;13.52;;
84946;SDS011;75241;51.692;5.196;2024-01-07T08:54:03;23.90;;;13.52;;
84946;SDS011;75241;51.692;5.196;2024-01-07T08:56:28;20.90;;;13.27;;
84946;SDS011;75241;51.692;5.196;2024-01-07T08:58:54;20.33;;;12.45;;
84946;SDS011;75241;51.692;5.196;2024-01-07T09:01:19;21.42;;;13.93;;
84946;SDS011;75241;51.692;5.196;2024-01-07T09:03:45;23.50;;;13.90;;
84946;SDS011;75241;51.692;5.196;2024-01-07T09:06:10;21.25;;;12.70;;
84946;SDS011;75241;51.692;5.196;2024-01-07T09:08:35;21.00;;;13.23;;
84946;SDS011;75241;51.692;5.196;2024-01-07T09:11:03;19.08;;;11.15;;
84946;SDS011;75241;51.692;5.196;2024-01-07T09:13:29;18.50;;;12.43;;
84946;SDS011;75241;51.692;5.196;2024-01-07T09:15:54;23.90;;;14.00;;
84946;SDS011;75241;51.692;5.196;2024-01-07T09:18:20;19.02;;;12.00;;
84946;SDS011;75241;51.692;5.196;2024-01-07T09:20:45;19.17;;;13.68;;
84946;SDS011;75241;51.692;5.196;2024-01-07T09:23:11;19.85;;;13.30;;
84946;SDS011;75241;51.692;5.196;2024-01-07T09:25:37;20.85;;;14.18;;
84946;SDS011;75241;51.692;5.196;2024-01-07T09:28:02;20.52;;;13.20;;
84946;SDS011;75241;51.692;5.196;2024-01-07T09:30:29;19.25;;;12.70;;
84946;SDS011;75241;51.692;5.196;2024-01-07T09:32:54;19.80;;;13.85;;
84946;SDS011;75241;51.692;5.196;2024-01-07T09:35:20;21.33;;;13.90;;
84946;SDS011;75241;51.692;5.196;2024-01-07T09:37:45;20.33;;;12.85;;
84946;SDS011;75241;51.692;5.196;2024-01-07T09:40:11;21.65;;;12.55;;
84946;SDS011;75241;51.692;5.196;2024-01-07T09:42:37;21.55;;;12.35;;
84946;SDS011;75241;51.692;5.196;2024-01-07T09:45:02;18.70;;;11.40;;
84946;SDS011;75241;51.692;5.196;2024-01-07T09:47:29;17.08;;;11.30;;
84946;SDS011;75241;51.692;5.196;2024-01-07T09:49:55;15.93;;;11.02;;
84946;SDS011;75241;51.692;5.196;2024-01-07T09:52:20;17.65;;;11.32;;
84946;SDS011;75241;51.692;5.196;2024-01-07T09:54:46;17.23;;;11.85;;
84946;SDS011;75241;51.692;5.196;2024-01-07T09:57:17;16.88;;;11.13;;
84946;SDS011;75241;51.692;5.196;2024-01-07T09:59:42;15.63;;;10.73;;
84946;SDS011;75241;51.692;5.196;2024-01-07T10:02:08;16.55;;;10.50;;
84946;SDS011;75241;51.692;5.196;2024-01-07T10:04:34;13.38;;;9.45;;
84946;SDS011;75241;51.692;5.196;2024-01-07T10:07:00;13.93;;;9.45;;
84946;SDS011;75241;51.692;5.196;2024-01-07T10:09:29;11.85;;;8.73;;
84946;SDS011;75241;51.692;5.196;2024-01-07T10:11:57;15.77;;;10.88;;
84946;SDS011;75241;51.692;5.196;2024-01-07T10:14:23;17.20;;;11.60;;
84946;SDS011;75241;51.692;5.196;2024-01-07T10:16:49;15.43;;;11.05;;
84946;SDS011;75241;51.692;5.196;2024-01-07T10:19:24;16.05;;;10.73;;
84946;SDS011;75241;51.692;5.196;2024-01-07T10:22:03;45.97;;;22.77;;
84946;SDS011;75241;51.692;5.196;2024-01-07T10:24:36;17.70;;;10.63;;
84946;SDS011;75241;51.692;5.196;2024-01-07T10:27:03;16.73;;;10.52;;
84946;SDS011;75241;51.692;5.196;2024-01-07T10:29:29;16.85;;;11.02;;
84946;SDS011;75241;51.692;5.196;2024-01-07T10:31:59;15.75;;;11.75;;
84946;SDS011;75241;51.692;5.196;2024-01-07T10:34:36;16.25;;;11.35;;
84946;SDS011;75241;51.692;5.196;2024-01-07T10:37:02;15.20;;;10.50;;
84946;SDS011;75241;51.692;5.196;2024-01-07T10:39:29;15.10;;;10.02;;
84946;SDS011;75241;51.692;5.196;2024-01-07T10:41:56;15.77;;;10.88;;
84946;SDS011;75241;51.692;5.196;2024-01-07T10:44:25;18.52;;;11.77;;
84946;SDS011;75241;51.692;5.196;2024-01-07T10:46:53;15.52;;;9.93;;
84946;SDS011;75241;51.692;5.196;2024-01-07T10:49:19;17.17;;;12.48;;
84946;SDS011;75241;51.692;5.196;2024-01-07T10:52:07;15.25;;;11.38;;
84946;SDS011;75241;51.692;5.196;2024-01-07T10:54:34;17.67;;;11.57;;
84946;SDS011;75241;51.692;5.196;2024-01-07T10:59:57;14.52;;;10.07;;
84946;SDS011;75241;51.692;5.196;2024-01-07T11:02:24;14.32;;;9.98;;
84946;SDS011;75241;51.692;5.196;2024-01-07T11:09:50;17.73;;;11.38;;
84946;SDS011;75241;51.692;5.196;2024-01-07T11:12:40;14.20;;;10.35;;
84946;SDS011;75241;51.692;5.196;2024-01-07T11:15:05;16.85;;;11.00;;
84946;SDS011;75241;51.692;5.196;2024-01-07T11:20:05;17.33;;;11.45;;
84946;SDS011;75241;51.692;5.196;2024-01-07T11:22:33;15.52;;;10.00;;
84946;SDS011;75241;51.692;5.196;2024-01-07T11:25:01;18.83;;;10.55;;
84946;SDS011;75241;51.692;5.196;2024-01-07T11:27:30;13.90;;;8.95;;
84946;SDS011;75241;51.692;5.196;2024-01-07T11:30:03;15.25;;;9.65;;
84946;SDS011;75241;51.692;5.196;2024-01-07T11:32:44;11.00;;;8.10;;
84946;SDS011;75241;51.692;5.196;2024-01-07T11:35:12;14.98;;;9.23;;
84946;SDS011;75241;51.692;5.196;2024-01-07T11:37:38;13.27;;;8.10;;
84946;SDS011;75241;51.692;5.196;2024-01-07T11:40:03;16.00;;;9.55;;
84946;SDS011;75241;51.692;5.196;2024-01-07T11:42:31;12.13;;;8.30;;
84946;SDS011;75241;51.692;5.196;2024-01-07T11:44:57;22.23;;;11.88;;
84946;SDS011;75241;51.692;5.196;2024-01-07T11:47:23;14.30;;;9.13;;
84946;SDS011;75241;51.692;5.196;2024-01-07T11:49:49;14.38;;;8.23;;
84946;SDS011;75241;51.692;5.196;2024-01-07T11:52:14;12.25;;;8.48;;
84946;SDS011;75241;51.692;5.196;2024-01-07T11:54:40;16.15;;;8.65;;
84946;SDS011;75241;51.692;5.196;2024-01-07T11:57:06;9.55;;;7.35;;
84946;SDS011;75241;51.692;5.196;2024-01-07T11:59:35;11.63;;;7.75;;
84946;SDS011;75241;51.692;5.196;2024-01-07T12:02:04;12.02;;;7.70;;
84946;SDS011;75241;51.692;5.196;2024-01-07T12:04:30;9.88;;;6.88;;
84946;SDS011;75241;51.692;5.196;2024-01-07T12:06:56;10.23;;;7.32;;
84946;SDS011;75241;51.692;5.196;2024-01-07T12:09:22;11.38;;;6.82;;
84946;SDS011;75241;51.692;5.196;2024-01-07T12:11:47;8.55;;;6.20;;
84946;SDS011;75241;51.692;5.196;2024-01-07T12:14:13;9.63;;;6.63;;
84946;SDS011;75241;51.692;5.196;2024-01-07T12:16:39;10.00;;;6.88;;
84946;SDS011;75241;51.692;5.196;2024-01-07T12:19:04;9.98;;;6.90;;
84946;SDS011;75241;51.692;5.196;2024-01-07T12:21:29;9.75;;;7.07;;
84946;SDS011;75241;51.692;5.196;2024-01-07T12:23:55;9.10;;;6.72;;
84946;SDS011;75241;51.692;5.196;2024-01-07T12:26:25;12.13;;;7.88;;
84946;SDS011;75241;51.692;5.196;2024-01-07T12:28:54;9.52;;;7.13;;
84946;SDS011;75241;51.692;5.196;2024-01-07T12:31:22;8.50;;;5.60;;
84946;SDS011;75241;51.692;5.196;2024-01-07T12:33:48;12.57;;;7.28;;
84946;SDS011;75241;51.692;5.196;2024-01-07T12:36:13;11.15;;;7.20;;
84946;SDS011;75241;51.692;5.196;2024-01-07T12:38:40;9.95;;;7.10;;
84946;SDS011;75241;51.692;5.196;2024-01-07T12:41:06;10.18;;;6.78;;
84946;SDS011;75241;51.692;5.196;2024-01-07T12:43:31;10.45;;;7.25;;
84946;SDS011;75241;51.692;5.196;2024-01-07T12:45:57;9.38;;;7.75;;
84946;SDS011;75241;51.692;5.196;2024-01-07T12:48:26;10.05;;;7.40;;
84946;SDS011;75241;51.692;5.196;2024-01-07T12:50:51;10.73;;;7.38;;
84946;SDS011;75241;51.692;5.196;2024-01-07T12:53:17;10.23;;;7.70;;
84946;SDS011;75241;51.692;5.196;2024-01-07T12:55:43;7.95;;;6.20;;
84946;SDS011;75241;51.692;5.196;2024-01-07T12:58:08;8.70;;;6.43;;
84946;SDS011;75241;51.692;5.196;2024-01-07T13:00:34;8.88;;;6.18;;
84946;SDS011;75241;51.692;5.196;2024-01-07T13:03:00;8.70;;;5.85;;
84946;SDS011;75241;51.692;5.196;2024-01-07T13:05:25;9.18;;;6.25;;
84946;SDS011;75241;51.692;5.196;2024-01-07T13:07:51;8.02;;;5.95;;
84946;SDS011;75241;51.692;5.196;2024-01-07T13:10:16;8.25;;;5.88;;
84946;SDS011;75241;51.692;5.196;2024-01-07T13:12:42;8.30;;;5.03;;
84946;SDS011;75241;51.692;5.196;2024-01-07T13:15:07;6.47;;;5.25;;
84946;SDS011;75241;51.692;5.196;2024-01-07T13:17:33;6.93;;;4.15;;
84946;SDS011;75241;51.692;5.196;2024-01-07T13:19:59;7.65;;;5.63;;
84946;SDS011;75241;51.692;5.196;2024-01-07T13:22:25;6.65;;;4.55;;
84946;SDS011;75241;51.692;5.196;2024-01-07T13:24:50;6.65;;;4.65;;
84946;SDS011;75241;51.692;5.196;2024-01-07T13:27:16;8.50;;;4.80;;
84946;SDS011;75241;51.692;5.196;2024-01-07T13:29:43;5.82;;;3.92;;
84946;SDS011;75241;51.692;5.196;2024-01-07T13:32:12;5.63;;;4.15;;
84946;SDS011;75241;51.692;5.196;2024-01-07T13:34:42;5.18;;;3.35;;
84946;SDS011;75241;51.692;5.196;2024-01-07T13:37:08;4.22;;;2.92;;
84946;SDS011;75241;51.692;5.196;2024-01-07T13:39:33;6.45;;;3.58;;
84946;SDS011;75241;51.692;5.196;2024-01-07T13:41:58;4.70;;;2.95;;
84946;SDS011;75241;51.692;5.196;2024-01-07T13:44:24;5.32;;;3.28;;
84946;SDS011;75241;51.692;5.196;2024-01-07T13:46:49;4.80;;;3.15;;
84946;SDS011;75241;51.692;5.196;2024-01-07T13:49:17;5.18;;;3.35;;
84946;SDS011;75241;51.692;5.196;2024-01-07T13:51:42;5.07;;;3.15;;
84946;SDS011;75241;51.692;5.196;2024-01-07T13:54:09;4.03;;;3.10;;
84946;SDS011;75241;51.692;5.196;2024-01-07T13:56:38;4.18;;;2.92;;
84946;SDS011;75241;51.692;5.196;2024-01-07T13:59:06;3.97;;;2.67;;
84946;SDS011;75241;51.692;5.196;2024-01-07T14:01:32;5.55;;;2.92;;
84946;SDS011;75241;51.692;5.196;2024-01-07T14:03:57;4.57;;;2.95;;
84946;SDS011;75241;51.692;5.196;2024-01-07T14:06:23;4.72;;;3.15;;
84946;SDS011;75241;51.692;5.196;2024-01-07T14:08:48;4.32;;;3.15;;
84946;SDS011;75241;51.692;5.196;2024-01-07T14:11:14;3.72;;;2.75;;
84946;SDS011;75241;51.692;5.196;2024-01-07T14:13:39;5.18;;;2.55;;
84946;SDS011;75241;51.692;5.196;2024-01-07T14:16:04;3.72;;;2.78;;
84946;SDS011;75241;51.692;5.196;2024-01-07T14:18:31;4.05;;;2.45;;
84946;SDS011;75241;51.692;5.196;2024-01-07T14:20:56;4.38;;;2.88;;
84946;SDS011;75241;51.692;5.196;2024-01-07T14:23:22;4.63;;;3.20;;
84946;SDS011;75241;51.692;5.196;2024-01-07T14:25:47;3.95;;;2.88;;
84946;SDS011;75241;51.692;5.196;2024-01-07T14:28:13;4.20;;;2.80;;
84946;SDS011;75241;51.692;5.196;2024-01-07T14:30:38;5.68;;;3.05;;
84946;SDS011;75241;51.692;5.196;2024-01-07T14:33:03;6.93;;;3.60;;
84946;SDS011;75241;51.692;5.196;2024-01-07T14:35:29;5.22;;;3.75;;